createdAt,value
2018-06-04T00:00:15.794Z,14.80
2018-06-04T00:02:44.262Z,14.80
2018-06-04T00:05:12.697Z,14.80
2018-06-04T00:07:41.146Z,14.80
2018-06-04T00:10:09.557Z,14.70
2018-06-04T00:12:37.989Z,14.70
2018-06-04T00:15:06.693Z,14.80
2018-06-04T00:17:35.107Z,14.90
2018-06-04T00:20:03.577Z,15.00
2018-06-04T00:22:32.036Z,15.00
2018-06-04T00:25:00.462Z,15.00
2018-06-04T00:27:28.864Z,14.90
2018-06-04T00:29:57.330Z,15.00
2018-06-04T00:32:25.809Z,14.90
2018-06-04T00:34:54.247Z,14.90
2018-06-04T00:37:22.665Z,14.80
2018-06-04T00:39:51.145Z,14.70
2018-06-04T00:42:19.713Z,14.70
2018-06-04T00:44:48.177Z,14.70
2018-06-04T00:47:16.706Z,14.70
2018-06-04T00:49:45.171Z,14.70
2018-06-04T00:52:13.593Z,14.70
2018-06-04T00:54:42.072Z,14.60
2018-06-04T00:57:10.553Z,14.50
2018-06-04T00:59:39.020Z,14.40
2018-06-04T01:02:08.278Z,14.30
2018-06-04T01:04:36.720Z,14.20
2018-06-04T01:07:05.205Z,14.20
2018-06-04T01:09:33.659Z,14.10
2018-06-04T01:12:02.092Z,14.20
2018-06-04T01:14:30.614Z,14.10
2018-06-04T01:16:59.092Z,14.00
2018-06-04T01:19:27.536Z,13.90
2018-06-04T01:21:56.097Z,13.90
2018-06-04T01:24:24.538Z,13.80
2018-06-04T01:26:52.984Z,13.80
2018-06-04T01:29:21.468Z,13.80
2018-06-04T01:31:49.897Z,13.80
2018-06-04T01:34:18.317Z,13.70
2018-06-04T01:36:46.765Z,13.70
2018-06-04T01:39:15.322Z,13.70
2018-06-04T01:41:43.812Z,13.60
2018-06-04T01:44:12.284Z,13.70
2018-06-04T01:46:40.800Z,13.60
2018-06-04T01:49:09.263Z,13.60
2018-06-04T01:51:37.739Z,13.60
2018-06-04T01:54:06.245Z,13.60
2018-06-04T01:56:34.798Z,13.60
2018-06-04T01:59:03.295Z,13.50
2018-06-04T02:01:31.741Z,13.50
2018-06-04T02:04:00.228Z,13.40
2018-06-04T02:06:28.680Z,13.40
2018-06-04T02:08:57.195Z,13.40
2018-06-04T02:11:25.678Z,13.40
2018-06-04T02:13:54.110Z,13.30
2018-06-04T02:18:50.634Z,13.40
2018-06-04T02:21:19.070Z,13.30
2018-06-04T02:23:47.537Z,13.30
2018-06-04T02:26:16.112Z,13.30
2018-06-04T02:28:44.545Z,13.30
2018-06-04T02:31:13.291Z,13.20
2018-06-04T02:33:41.753Z,13.30
2018-06-04T02:36:10.266Z,13.40
2018-06-04T02:38:38.708Z,13.30
2018-06-04T02:41:07.196Z,13.20
2018-06-04T02:43:35.884Z,13.20
2018-06-04T02:46:04.440Z,13.20
2018-06-04T02:48:34.682Z,13.10
2018-06-04T02:51:03.121Z,13.10
2018-06-04T02:53:33.060Z,13.00
2018-06-04T02:56:01.511Z,13.00
2018-06-04T02:58:30.895Z,13.00
2018-06-04T03:01:00.157Z,13.00
2018-06-04T03:03:29.871Z,12.90
2018-06-04T03:05:59.188Z,12.90
2018-06-04T03:08:29.723Z,12.90
2018-06-04T03:10:58.184Z,13.00
2018-06-04T03:13:27.475Z,13.00
2018-06-04T03:15:56.485Z,13.00
2018-06-04T03:18:25.811Z,12.90
2018-06-04T03:20:54.268Z,12.90
2018-06-04T03:23:22.746Z,12.90
2018-06-04T03:25:51.218Z,12.90
2018-06-04T03:28:19.676Z,12.90
2018-06-04T03:30:48.107Z,12.90
2018-06-04T03:33:16.591Z,12.90
2018-06-04T03:35:45.009Z,12.90
2018-06-04T03:38:13.489Z,12.80
2018-06-04T03:40:41.969Z,12.90
2018-06-04T03:43:10.394Z,13.10
2018-06-04T03:45:38.833Z,13.20
2018-06-04T03:48:07.278Z,13.40
2018-06-04T03:50:35.749Z,13.40
2018-06-04T03:53:04.161Z,13.40
2018-06-04T03:55:32.650Z,13.50
2018-06-04T03:58:01.067Z,13.60
2018-06-04T04:00:29.525Z,13.60
2018-06-04T04:02:58.123Z,13.70
2018-06-04T04:05:26.709Z,13.80
2018-06-04T04:07:55.500Z,13.90
2018-06-04T04:10:23.952Z,13.90
2018-06-04T04:12:52.469Z,14.00
2018-06-04T04:15:21.071Z,14.10
2018-06-04T04:17:49.552Z,14.20
2018-06-04T04:20:18.015Z,14.20
2018-06-04T04:22:46.468Z,14.20
2018-06-04T04:25:14.897Z,14.30
2018-06-04T04:27:43.370Z,14.30
2018-06-04T04:30:11.873Z,14.40
2018-06-04T04:32:40.321Z,14.60
2018-06-04T04:35:08.796Z,14.70
2018-06-04T04:37:37.281Z,14.80
2018-06-04T04:40:05.977Z,15.00
2018-06-04T04:42:34.501Z,15.00
2018-06-04T04:45:03.016Z,15.10
2018-06-04T04:47:31.460Z,15.20
2018-06-04T04:49:59.940Z,15.30
2018-06-04T04:52:28.431Z,15.40
2018-06-04T04:54:56.958Z,15.50
2018-06-04T04:57:25.638Z,15.60
2018-06-04T04:59:54.128Z,15.60
2018-06-04T05:02:22.710Z,15.80
2018-06-04T05:04:51.375Z,15.90
2018-06-04T05:07:19.808Z,16.10
2018-06-04T05:09:48.244Z,16.20
2018-06-04T05:12:16.705Z,16.20
2018-06-04T05:14:45.279Z,16.40
2018-06-04T05:17:13.847Z,16.70
2018-06-04T05:19:42.364Z,16.70
2018-06-04T05:22:10.775Z,17.60
2018-06-04T05:24:39.408Z,17.50
2018-06-04T05:27:08.043Z,17.70
2018-06-04T05:29:36.508Z,18.10
2018-06-04T05:32:14.989Z,18.70
2018-06-04T05:34:43.645Z,19.60
2018-06-04T05:37:13.306Z,19.50
2018-06-04T05:39:41.760Z,20.60
2018-06-04T05:42:10.270Z,21.20
2018-06-04T05:44:38.744Z,21.00
2018-06-04T05:47:07.247Z,21.60
2018-06-04T05:49:35.721Z,22.40
2018-06-04T05:52:04.175Z,22.70
2018-06-04T05:54:32.635Z,23.50
2018-06-04T05:57:01.078Z,24.10
2018-06-04T05:59:29.559Z,24.10
2018-06-04T06:01:58.210Z,24.30
2018-06-04T06:04:26.762Z,24.90
2018-06-04T06:06:55.245Z,24.90
2018-06-04T06:09:23.674Z,25.10
2018-06-04T06:11:52.158Z,24.70
2018-06-04T06:14:20.692Z,24.90
2018-06-04T06:16:49.148Z,24.70
2018-06-04T06:19:17.613Z,25.00
2018-06-04T06:21:46.052Z,25.70
2018-06-04T06:24:14.489Z,25.70
2018-06-04T06:26:42.977Z,26.20
2018-06-04T06:29:11.982Z,26.90
2018-06-04T06:31:40.544Z,27.20
2018-06-04T06:34:08.964Z,27.70
2018-06-04T06:36:50.018Z,27.30
2018-06-04T06:39:18.530Z,27.30
2018-06-04T06:41:47.029Z,27.80
2018-06-04T06:44:15.763Z,28.00
2018-06-04T06:46:46.577Z,28.00
2018-06-04T06:49:15.200Z,28.70
2018-06-04T06:51:44.157Z,29.10
2018-06-04T06:54:12.826Z,28.50
2018-06-04T06:56:41.290Z,28.90
2018-06-04T06:59:09.729Z,29.30
2018-06-04T07:01:38.225Z,29.50
2018-06-04T07:04:06.814Z,29.00
2018-06-04T07:06:35.290Z,28.90
2018-06-04T07:09:04.048Z,29.20
2018-06-04T07:11:32.701Z,29.40
2018-06-04T07:14:01.185Z,29.90
2018-06-04T07:16:29.612Z,30.20
2018-06-04T07:18:58.137Z,29.80
2018-06-04T07:21:26.708Z,29.70
2018-06-04T07:23:55.406Z,29.60
2018-06-04T07:26:23.894Z,29.80
2018-06-04T07:28:52.461Z,29.70
2018-06-04T07:31:21.005Z,29.50
2018-06-04T07:33:49.744Z,29.20
2018-06-04T07:36:18.544Z,29.30
2018-06-04T07:38:47.149Z,30.60
2018-06-04T07:41:16.091Z,30.70
2018-06-04T07:43:44.537Z,31.00
2018-06-04T07:46:13.001Z,30.10
2018-06-04T07:48:41.496Z,29.70
2018-06-04T07:51:10.006Z,30.40
2018-06-04T07:53:38.510Z,30.10
2018-06-04T07:56:07.009Z,30.10
2018-06-04T07:58:35.494Z,30.80
2018-06-04T08:01:03.963Z,30.70
2018-06-04T08:03:32.401Z,30.20
2018-06-04T08:06:00.961Z,29.50
2018-06-04T08:08:33.025Z,28.80
2018-06-04T08:11:01.502Z,29.50
2018-06-04T08:13:29.983Z,29.90
2018-06-04T08:15:58.458Z,29.80
2018-06-04T08:18:26.949Z,30.30
2018-06-04T08:20:55.704Z,30.80
2018-06-04T08:23:24.341Z,31.60
2018-06-04T08:25:52.772Z,30.60
2018-06-04T08:28:21.232Z,31.20
2018-06-04T08:30:50.148Z,31.40
2018-06-04T08:33:18.613Z,31.80
2018-06-04T08:35:47.158Z,31.10
2018-06-04T08:38:15.706Z,31.10
2018-06-04T08:40:44.174Z,32.30
2018-06-04T08:43:12.605Z,32.10
2018-06-04T08:45:41.151Z,32.70
2018-06-04T08:48:09.600Z,32.70
2018-06-04T08:50:38.100Z,32.30
2018-06-04T08:53:06.559Z,31.00
2018-06-04T08:58:03.164Z,30.20
2018-06-04T09:00:31.597Z,31.20
2018-06-04T09:03:00.022Z,31.20
2018-06-04T09:05:28.541Z,30.90
2018-06-04T09:07:57.036Z,31.10
2018-06-04T09:10:25.637Z,30.20
2018-06-04T09:12:54.193Z,31.10
2018-06-04T09:15:22.720Z,32.30
2018-06-04T09:17:51.130Z,32.90
2018-06-04T09:20:19.558Z,33.90
2018-06-04T09:25:16.130Z,31.90
2018-06-04T09:27:44.560Z,32.10
2018-06-04T09:30:12.989Z,31.80
2018-06-04T09:32:41.493Z,32.50
2018-06-04T09:35:09.967Z,32.50
2018-06-04T09:37:38.425Z,33.70
2018-06-04T09:40:06.889Z,33.20
2018-06-04T09:42:35.493Z,32.30
2018-06-04T09:45:03.998Z,32.40
2018-06-04T09:47:32.581Z,32.50
2018-06-04T09:50:01.238Z,33.50
2018-06-04T09:52:29.937Z,33.00
2018-06-04T09:54:58.489Z,33.10
2018-06-04T09:57:27.257Z,32.50
2018-06-04T09:59:56.331Z,33.10
2018-06-04T10:02:25.847Z,32.90
2018-06-04T10:04:54.413Z,32.70
2018-06-04T10:07:23.550Z,33.00
2018-06-04T10:09:52.368Z,32.70
2018-06-04T10:12:21.060Z,33.20
2018-06-04T10:14:50.259Z,32.70
2018-06-04T10:17:19.739Z,32.90
2018-06-04T10:19:48.610Z,32.90
2018-06-04T10:22:17.185Z,33.20
2018-06-04T10:24:45.868Z,34.10
2018-06-04T10:27:14.524Z,33.20
2018-06-04T10:29:43.193Z,32.60
2018-06-04T10:32:11.689Z,33.00
2018-06-04T10:34:40.247Z,33.00
2018-06-04T10:37:09.500Z,33.70
2018-06-04T10:39:38.054Z,33.50
2018-06-04T10:42:06.542Z,33.60
2018-06-04T10:44:35.043Z,33.10
2018-06-04T10:47:07.081Z,33.30
2018-06-04T10:49:35.487Z,32.70
2018-06-04T10:52:03.971Z,32.50
2018-06-04T10:54:32.424Z,32.60
2018-06-04T10:57:00.958Z,31.90
2018-06-04T10:59:29.475Z,30.80
2018-06-04T11:01:58.028Z,30.10
2018-06-04T11:04:26.675Z,29.40
2018-06-04T11:06:55.321Z,28.80
2018-06-04T11:09:23.930Z,28.60
2018-06-04T11:11:52.471Z,29.00
2018-06-04T11:14:20.884Z,28.60
2018-06-04T11:16:49.341Z,29.20
2018-06-04T11:19:17.907Z,29.00
2018-06-04T11:21:46.375Z,29.40
2018-06-04T11:24:14.836Z,29.90
2018-06-04T11:26:43.373Z,30.00
2018-06-04T11:29:11.843Z,29.80
2018-06-04T11:31:40.338Z,30.50
2018-06-04T11:34:08.890Z,31.00
2018-06-04T11:36:37.432Z,30.60
2018-06-04T11:39:08.013Z,30.40
2018-06-04T11:41:36.717Z,30.70
2018-06-04T11:44:06.187Z,30.60
2018-06-04T11:46:34.609Z,29.40
2018-06-04T11:49:03.108Z,28.60
2018-06-04T11:51:31.698Z,28.70
2018-06-04T11:54:00.138Z,29.30
2018-06-04T11:56:28.738Z,29.80
2018-06-04T11:58:57.616Z,29.80
2018-06-04T12:01:26.050Z,30.10
2018-06-04T12:03:54.888Z,29.80
2018-06-04T12:06:23.388Z,29.60
2018-06-04T12:08:51.982Z,29.50
2018-06-04T12:11:20.510Z,29.60
2018-06-04T12:13:49.035Z,29.70
2018-06-04T12:16:17.869Z,29.70
2018-06-04T12:18:46.346Z,28.80
2018-06-04T12:21:14.863Z,28.60
2018-06-04T12:23:43.341Z,28.70
2018-06-04T12:26:11.945Z,28.00
2018-06-04T12:28:40.995Z,27.80
2018-06-04T12:31:09.567Z,28.10
2018-06-04T12:33:44.699Z,28.40
2018-06-04T12:36:13.325Z,28.80
2018-06-04T12:38:41.838Z,28.60
2018-06-04T12:41:10.374Z,29.00
2018-06-04T12:43:38.925Z,29.00
2018-06-04T12:46:07.576Z,29.30
2018-06-04T12:48:36.067Z,29.10
2018-06-04T12:51:04.630Z,29.40
2018-06-04T12:53:33.315Z,28.90
2018-06-04T12:56:01.860Z,28.80
2018-06-04T12:58:30.392Z,28.80
2018-06-04T13:00:59.024Z,28.50
2018-06-04T13:03:27.647Z,28.60
2018-06-04T13:05:56.128Z,28.60
2018-06-04T13:08:24.616Z,29.00
2018-06-04T13:10:53.097Z,29.00
2018-06-04T13:13:21.588Z,29.40
2018-06-04T13:15:50.069Z,29.60
2018-06-04T13:18:18.640Z,29.40
2018-06-04T13:20:47.128Z,29.30
2018-06-04T13:23:15.681Z,29.00
2018-06-04T13:25:44.087Z,28.60
2018-06-04T13:28:12.602Z,28.70
2018-06-04T13:30:41.294Z,28.30
2018-06-04T13:33:09.773Z,28.10
2018-06-04T13:35:38.219Z,28.30
2018-06-04T13:38:06.740Z,29.00
2018-06-04T13:40:35.193Z,28.80
2018-06-04T13:43:03.637Z,28.60
2018-06-04T13:45:32.287Z,28.50
2018-06-04T13:48:00.768Z,27.90
2018-06-04T13:50:29.251Z,28.10
2018-06-04T13:52:57.773Z,27.90
2018-06-04T13:55:26.224Z,28.30
2018-06-04T13:57:54.714Z,28.20
2018-06-04T14:00:23.153Z,28.40
2018-06-04T14:02:51.620Z,28.30
2018-06-04T14:05:20.212Z,28.10
2018-06-04T14:07:48.737Z,27.90
2018-06-04T14:10:17.302Z,28.10
2018-06-04T14:12:45.825Z,28.20
2018-06-04T14:15:14.289Z,27.90
2018-06-04T14:17:42.837Z,28.00
2018-06-04T14:20:11.386Z,28.00
2018-06-04T14:22:40.107Z,28.20
2018-06-04T14:25:08.589Z,28.00
2018-06-04T14:27:37.164Z,28.30
2018-06-04T14:30:05.636Z,28.30
2018-06-04T14:32:34.173Z,28.00
2018-06-04T14:35:02.624Z,27.50
2018-06-04T14:37:31.148Z,27.40
2018-06-04T14:39:59.714Z,26.80
2018-06-04T14:42:28.332Z,27.30
2018-06-04T14:44:56.820Z,27.30
2018-06-04T14:47:25.336Z,26.80
2018-06-04T14:49:53.823Z,27.00
2018-06-04T14:54:50.607Z,26.60
2018-06-04T14:57:19.324Z,27.10
2018-06-04T14:59:48.324Z,27.10
2018-06-04T15:02:16.825Z,26.60
2018-06-04T15:04:45.280Z,26.80
2018-06-04T15:07:13.761Z,26.60
2018-06-04T15:09:42.294Z,26.80
2018-06-04T15:12:10.767Z,26.50
2018-06-04T15:14:39.257Z,26.20
2018-06-04T15:17:07.758Z,26.20
2018-06-04T15:19:36.310Z,26.10
2018-06-04T15:22:04.849Z,25.90
2018-06-04T15:24:33.325Z,25.90
2018-06-04T15:27:01.784Z,25.90
2018-06-04T15:29:30.328Z,25.90
2018-06-04T15:31:58.805Z,26.20
2018-06-04T15:34:28.289Z,26.20
2018-06-04T15:36:56.920Z,26.30
2018-06-04T15:39:25.445Z,26.60
2018-06-04T15:41:53.920Z,26.30
2018-06-04T15:44:22.378Z,26.20
2018-06-04T15:46:51.120Z,25.80
2018-06-04T15:49:19.759Z,25.60
2018-06-04T15:51:48.509Z,25.90
2018-06-04T15:54:16.989Z,26.00
2018-06-04T15:56:45.408Z,26.00
2018-06-04T15:59:13.863Z,25.90
2018-06-04T16:01:42.673Z,25.70
2018-06-04T16:04:11.221Z,25.60
2018-06-04T16:06:39.811Z,25.80
2018-06-04T16:09:08.668Z,25.80
2018-06-04T16:11:37.085Z,25.90
2018-06-04T16:14:05.666Z,26.00
2018-06-04T16:16:34.157Z,25.60
2018-06-04T16:19:02.613Z,25.60
2018-06-04T16:21:31.118Z,25.50
2018-06-04T16:23:59.739Z,25.60
2018-06-04T16:26:28.191Z,25.30
2018-06-04T16:28:56.675Z,25.30
2018-06-04T16:31:25.175Z,25.00
2018-06-04T16:33:53.736Z,25.20
2018-06-04T16:36:22.288Z,25.20
2018-06-04T16:38:50.933Z,25.40
2018-06-04T16:41:19.557Z,25.30
2018-06-04T16:43:47.955Z,25.20
2018-06-04T16:46:16.471Z,25.10
2018-06-04T16:48:45.015Z,25.20
2018-06-04T16:51:13.631Z,25.10
2018-06-04T16:53:42.569Z,25.00
2018-06-04T16:56:11.038Z,24.70
2018-06-04T16:58:39.750Z,24.60
2018-06-04T17:01:08.231Z,24.40
2018-06-04T17:03:36.686Z,24.50
2018-06-04T17:06:05.184Z,24.50
2018-06-04T17:08:33.627Z,24.30
2018-06-04T17:13:30.375Z,24.20
2018-06-04T17:15:58.849Z,23.90
2018-06-04T17:18:27.264Z,23.90
2018-06-04T17:20:55.656Z,23.90
2018-06-04T17:23:24.146Z,23.70
2018-06-04T17:25:52.617Z,23.80
2018-06-04T17:28:21.275Z,23.70
2018-06-04T17:30:49.849Z,23.70
2018-06-04T17:33:18.536Z,23.70
2018-06-04T17:35:47.141Z,23.50
2018-06-04T17:38:15.692Z,23.50
2018-06-04T17:40:44.229Z,23.60
2018-06-04T17:43:12.681Z,23.60
2018-06-04T17:45:41.469Z,23.60
2018-06-04T17:48:10.168Z,23.70
2018-06-04T17:50:38.828Z,23.90
2018-06-04T17:53:08.374Z,23.70
2018-06-04T17:55:36.912Z,23.60
2018-06-04T17:58:05.593Z,23.50
2018-06-04T18:00:34.329Z,23.40
2018-06-04T18:03:03.000Z,23.40
2018-06-04T18:05:31.457Z,23.30
2018-06-04T18:08:00.196Z,23.50
2018-06-04T18:10:28.865Z,23.50
2018-06-04T18:12:58.701Z,23.30
2018-06-04T18:15:27.883Z,23.30
2018-06-04T18:17:57.094Z,23.30
2018-06-04T18:20:25.705Z,23.30
2018-06-04T18:22:54.176Z,23.20
2018-06-04T18:25:22.751Z,23.20
2018-06-04T18:27:51.155Z,23.10
2018-06-04T18:30:20.936Z,22.90
2018-06-04T18:32:49.381Z,22.80
2018-06-04T18:35:17.937Z,22.90
2018-06-04T18:37:46.701Z,22.80
2018-06-04T18:42:43.495Z,22.70
2018-06-04T18:45:12.588Z,22.70
2018-06-04T18:47:41.186Z,22.60
2018-06-04T18:50:10.276Z,22.70
2018-06-04T18:52:39.086Z,22.40
2018-06-04T18:55:10.161Z,22.30
2018-06-04T19:00:07.430Z,22.20
2018-06-04T19:05:06.456Z,22.10
2018-06-04T19:07:35.684Z,22.00
2018-06-04T19:10:05.117Z,22.10
2018-06-04T19:12:34.968Z,21.80
2018-06-04T19:15:03.860Z,21.80
2018-06-04T19:17:33.263Z,21.70
2018-06-04T19:22:31.886Z,21.40
2018-06-04T19:25:00.839Z,21.30
2018-06-04T19:27:30.421Z,21.20
2018-06-04T19:30:00.190Z,21.10
2018-06-04T19:32:29.141Z,21.00
2018-06-04T19:34:57.786Z,20.90
2018-06-04T19:37:26.361Z,20.80
2018-06-04T19:42:24.611Z,20.70
2018-06-04T19:44:53.995Z,20.60
2018-06-04T19:47:24.045Z,20.60
2018-06-04T19:49:53.430Z,20.50
2018-06-04T19:52:22.042Z,20.50
2018-06-04T19:54:51.205Z,20.30
2018-06-04T19:57:20.117Z,20.20
2018-06-04T19:59:49.417Z,20.20
2018-06-04T20:02:18.710Z,20.00
2018-06-04T20:04:47.551Z,19.90
2018-06-04T20:07:16.124Z,19.90
2018-06-04T20:09:44.882Z,19.90
2018-06-04T20:12:13.448Z,19.80
2018-06-04T20:14:42.910Z,19.70
2018-06-04T20:17:12.331Z,19.60
2018-06-04T20:19:43.421Z,19.70
2018-06-04T20:22:15.112Z,19.70
2018-06-04T20:24:44.188Z,19.50
2018-06-04T20:27:13.952Z,19.40
2018-06-04T20:29:45.224Z,19.30
2018-06-04T20:32:15.312Z,19.20
2018-06-04T20:34:46.667Z,19.10
2018-06-04T20:37:21.499Z,19.10
2018-06-04T20:39:50.451Z,19.00
2018-06-04T20:42:19.021Z,18.90
2018-06-04T20:44:47.851Z,18.90
2018-06-04T20:52:12.679Z,18.70
2018-06-04T20:54:41.648Z,18.70
2018-06-04T20:57:10.247Z,18.60
2018-06-04T20:59:39.166Z,18.60
2018-06-04T21:02:08.306Z,18.60
2018-06-04T21:04:36.818Z,18.60
2018-06-04T21:07:05.577Z,18.60
2018-06-04T21:09:34.141Z,18.60
2018-06-04T21:12:02.671Z,18.60
2018-06-04T21:14:31.247Z,18.50
2018-06-04T21:16:59.795Z,18.40
2018-06-04T21:19:28.234Z,18.40
2018-06-04T21:21:56.710Z,18.30
2018-06-04T21:24:25.167Z,18.20
2018-06-04T21:26:53.820Z,18.20
2018-06-04T21:29:22.283Z,18.10
2018-06-04T21:31:50.894Z,18.00
2018-06-04T21:34:19.340Z,18.10
2018-06-04T21:36:47.909Z,18.00
2018-06-04T21:39:16.515Z,18.00
2018-06-04T21:41:45.077Z,17.90
2018-06-04T21:44:13.584Z,17.90
2018-06-04T21:46:42.195Z,17.90
2018-06-04T21:49:14.921Z,17.90
2018-06-04T21:51:43.373Z,17.90
2018-06-04T21:54:11.841Z,17.80
2018-06-04T21:56:40.394Z,17.80
2018-06-04T21:59:08.926Z,17.80
2018-06-04T22:01:37.953Z,17.80
2018-06-04T22:04:06.481Z,17.70
2018-06-04T22:06:34.974Z,17.70
2018-06-04T22:09:04.364Z,17.70
2018-06-04T22:11:33.217Z,17.60
2018-06-04T22:14:01.857Z,17.60
2018-06-04T22:16:31.224Z,17.50
2018-06-04T22:18:59.804Z,17.40
2018-06-04T22:21:28.771Z,17.30
2018-06-04T22:23:57.322Z,17.20
2018-06-04T22:26:25.792Z,17.20
2018-06-04T22:28:54.562Z,17.10
2018-06-04T22:31:23.068Z,17.10
2018-06-04T22:33:51.528Z,17.00
2018-06-04T22:36:20.753Z,17.00
2018-06-04T22:38:49.250Z,17.00
2018-06-04T22:41:17.998Z,16.90
2018-06-04T22:43:46.884Z,16.90
2018-06-04T22:46:15.401Z,16.80
2018-06-04T22:48:45.146Z,16.80
2018-06-04T22:51:13.903Z,16.70
2018-06-04T22:53:42.684Z,16.60
2018-06-04T22:56:11.163Z,16.60
2018-06-04T22:58:40.243Z,16.50
2018-06-04T23:01:08.704Z,16.40
2018-06-04T23:03:37.359Z,16.40
2018-06-04T23:06:05.912Z,16.30
2018-06-04T23:08:34.408Z,16.30
2018-06-04T23:11:03.173Z,16.30
2018-06-04T23:13:32.401Z,16.20
2018-06-04T23:16:00.879Z,16.20
2018-06-04T23:18:29.861Z,16.20
2018-06-04T23:20:58.476Z,16.10
2018-06-04T23:23:26.888Z,16.10
2018-06-04T23:25:55.435Z,15.90
2018-06-04T23:28:23.881Z,15.80
2018-06-04T23:30:52.352Z,15.80
2018-06-04T23:33:20.855Z,15.70
2018-06-04T23:35:49.366Z,15.70
2018-06-04T23:38:17.954Z,15.70
2018-06-04T23:40:46.436Z,15.70
2018-06-04T23:43:14.849Z,15.70
2018-06-04T23:45:43.402Z,15.70
2018-06-04T23:48:11.865Z,15.60
2018-06-04T23:50:40.352Z,15.50
2018-06-04T23:53:08.791Z,15.50
2018-06-04T23:55:37.250Z,15.50
2018-06-04T23:58:05.753Z,15.50
